Dubina, Texas
Current Conditions -  °F | °C
As of 10:10 PM on Sunday 21 Dec 2014 (Local Time) from K3T5 Reporting Station
Overcast Overcast  
Wind Chill: 58°   Ceiling: 2700
Heat Index: 58°   Visibility: 10mi
Dew Point: 55°   Wind: 10mph
Humidity: 91%   Direction: 170°S
Pressure: 29.85"   Gusts: NA
Location:  29.7125°N, 96.9231°W
Report Text: K3T5 220410Z AUTO 17009KT 10SM SCT012 OVC027 15/13 A2985 RMK AO2 T01450130
Loading
Personal Weather Stations






























Interactive Weather Map New forecast layout! Learn more

10-Day Weather Forecast

Advertisements
Track Severe Weather on mobile